Time;durP1;ratioP1;P1;durP2;ratioP2;P2;SDS_P1;SDS_P2;PMS_P1;PMS_P2;Temp;Humidity;BMP_temperature;BMP_pressure;BME280_temperature;BME280_humidity;BME280_pressure;Samples;Min_cycle;Max_cycle;Signal;HPM_P1;HPM_P2
2022/12/23 00:01:13;;;;;;;5.35;3.25;;;14.00;99.90;;;;;;5017145;28;20024;-76
2022/12/23 00:03:39;;;;;;;3.38;2.58;;;13.90;99.90;;;;;;4995889;28;20041;-76
2022/12/23 00:06:10;;;;;;;4.70;2.92;;;13.90;99.90;;;;;;5016712;28;20093;-76
2022/12/23 00:08:36;;;;;;;6.25;3.30;;;13.90;99.90;;;;;;5006516;28;20052;-76
2022/12/23 00:11:05;;;;;;;6.78;2.70;;;13.70;99.90;;;;;;5016999;28;20033;-75
2022/12/23 00:16:16;;;;;;;4.45;2.83;;;13.70;99.90;;;;;;5016641;28;20033;-76
2022/12/23 00:18:42;;;;;;;4.25;2.90;;;13.70;99.90;;;;;;5008796;28;20088;-76
2022/12/23 00:21:11;;;;;;;7.45;3.75;;;13.80;99.90;;;;;;5016761;28;20022;-76
2022/12/23 00:23:39;;;;;;;6.57;2.70;;;13.70;99.90;;;;;;4992545;28;20033;-76
2022/12/23 00:26:06;;;;;;;5.20;2.97;;;13.70;99.90;;;;;;5008286;28;20049;-75
2022/12/23 00:28:32;;;;;;;6.00;3.22;;;13.80;99.90;;;;;;5002516;28;20022;-76
2022/12/23 00:31:04;;;;;;;6.43;3.55;;;13.90;99.90;;;;;;5012894;28;20542;-75
2022/12/23 00:33:32;;;;;;;7.82;2.78;;;13.90;99.90;;;;;;5014947;28;20057;-76
2022/12/23 00:35:59;;;;;;;6.13;3.08;;;14.10;99.90;;;;;;5013952;28;20028;-76
2022/12/23 00:44:03;;;;;;;5.85;2.88;;;14.20;99.90;;;;;;5015135;28;20048;-76
2022/12/23 00:46:29;;;;;;;7.05;3.05;;;14.10;99.90;;;;;;5001708;28;20508;-76
2022/12/23 00:51:39;;;;;;;7.28;3.17;;;14.00;99.90;;;;;;5017465;28;20080;-76
2022/12/23 00:54:06;;;;;;;4.40;2.50;;;13.90;99.90;;;;;;4997762;28;20035;-76
2022/12/23 00:56:32;;;;;;;4.72;2.85;;;13.80;99.90;;;;;;5019967;28;20022;-75
2022/12/23 00:58:58;;;;;;;7.22;2.70;;;13.70;99.90;;;;;;5016260;28;20018;-76
2022/12/23 01:06:58;;;;;;;4.53;2.97;;;13.40;99.90;;;;;;5018389;28;20088;-76
2022/12/23 01:09:24;;;;;;;9.02;3.17;;;13.30;99.90;;;;;;5012206;28;20026;-76
2022/12/23 01:11:50;;;;;;;8.43;3.58;;;13.20;99.90;;;;;;5000382;28;20112;-76
2022/12/23 01:14:16;;;;;;;7.68;2.97;;;13.20;99.90;;;;;;5012197;28;20065;-76
2022/12/23 01:16:42;;;;;;;8.95;2.65;;;13.10;99.90;;;;;;5018994;28;20083;-76
2022/12/23 01:19:08;;;;;;;13.48;3.47;;;13.10;99.90;;;;;;5002114;28;20018;-76
2022/12/23 01:21:34;;;;;;;6.50;2.75;;;13.00;99.90;;;;;;5001479;28;20115;-76
2022/12/23 01:24:00;;;;;;;7.38;3.08;;;13.10;99.90;;;;;;4992885;28;20022;-76
2022/12/23 01:26:26;;;;;;;6.63;2.95;;;13.10;99.90;;;;;;4992999;28;20137;-75
2022/12/23 01:28:56;;;;;;;6.03;3.10;;;13.10;99.90;;;;;;5008257;28;20038;-76
2022/12/23 01:31:26;;;;;;;9.50;3.25;;;13.00;99.90;;;;;;4995168;28;20029;-76
2022/12/23 01:33:53;;;;;;;5.47;2.60;;;13.10;99.90;;;;;;4996882;28;20029;-74
2022/12/23 01:36:19;;;;;;;6.00;3.40;;;13.10;99.90;;;;;;4997034;28;20471;-75
2022/12/23 01:38:46;;;;;;;4.88;2.65;;;13.20;99.90;;;;;;5013248;28;20493;-75
2022/12/23 01:42:42;;;;;;;7.93;2.80;;;13.10;99.90;;;;;;4997395;28;20494;-76
2022/12/23 01:44:41;;;;;;;5.15;3.03;;;13.00;99.90;;;;;;5010506;28;20073;-76
2022/12/23 01:47:12;;;;;;;6.57;3.33;;;12.90;99.90;;;;;;4990149;28;20030;-74
2022/12/23 01:49:38;;;;;;;;;;;12.80;99.90;;;;;;5014376;28;20105;-75
2022/12/23 01:52:04;;;;;;;6.28;3.20;;;12.90;99.90;;;;;;4998942;28;19910;-76
2022/12/23 01:54:31;;;;;;;9.02;2.78;;;12.90;99.90;;;;;;4998857;28;20033;-75
2022/12/23 01:56:57;;;;;;;3.72;2.70;;;13.00;99.90;;;;;;4999386;28;20023;-75
2022/12/23 02:04:53;;;;;;;5.00;3.00;;;13.00;99.90;;;;;;5010401;28;20472;-75
2022/12/23 02:10:05;;;;;;;5.03;2.97;;;12.90;99.90;;;;;;5011896;28;20033;-75
2022/12/23 02:12:45;;;;;;;9.13;3.63;;;12.90;99.90;;;;;;5015834;28;20038;-75
2022/12/23 02:18:22;;;;;;;3.97;2.80;;;12.80;99.90;;;;;;5005376;28;20033;-75
2022/12/23 02:21:12;;;;;;;3.63;2.90;;;12.60;99.90;;;;;;4994482;28;20037;-76
2022/12/23 02:23:59;;;;;;;7.10;3.45;;;12.60;99.90;;;;;;5006544;28;20041;-75
2022/12/23 02:26:55;;;;;;;4.72;3.10;;;12.60;99.90;;;;;;4995163;28;20057;-75
2022/12/23 02:29:33;;;;;;;5.22;3.20;;;12.40;99.90;;;;;;5009047;28;20037;-75
2022/12/23 02:32:55;;;;;;;5.13;3.13;;;12.30;99.90;;;;;;4996731;28;20121;-75
2022/12/23 02:35:36;;;;;;;4.63;2.95;;;12.20;99.90;;;;;;4980289;28;20049;-76
2022/12/23 02:38:05;;;;;;;5.47;2.90;;;12.00;99.90;;;;;;4999205;28;20037;-75
2022/12/23 02:40:52;;;;;;;13.20;3.88;;;11.80;99.90;;;;;;5012601;28;20030;-75
2022/12/23 02:43:32;;;;;;;9.50;3.40;;;11.80;99.90;;;;;;5011882;28;20026;-75
2022/12/23 02:46:17;;;;;;;5.77;3.13;;;11.70;99.90;;;;;;5013575;28;20083;-75
2022/12/23 02:49:05;;;;;;;5.53;3.58;;;11.60;99.90;;;;;;5007480;28;20034;-75
2022/12/23 02:51:36;;;;;;;5.47;2.97;;;11.70;99.90;;;;;;5016824;28;20014;-75
2022/12/23 02:54:08;;;;;;;8.73;3.80;;;11.60;99.90;;;;;;5012955;28;20038;-75
2022/12/23 02:56:37;;;;;;;7.78;3.38;;;11.70;99.90;;;;;;5000070;28;20109;-75
2022/12/23 02:59:14;;;;;;;6.43;3.65;;;11.60;99.90;;;;;;5004892;28;20502;-74
2022/12/23 03:01:41;;;;;;;7.57;3.53;;;11.80;99.90;;;;;;5007331;28;20368;-76
2022/12/23 03:04:08;;;;;;;8.15;3.65;;;12.00;99.90;;;;;;5006153;28;20034;-75
2022/12/23 03:06:40;;;;;;;8.43;3.63;;;12.20;99.90;;;;;;5017894;28;20486;-75
2022/12/23 03:09:07;;;;;;;6.65;3.42;;;12.30;99.90;;;;;;5008643;28;20057;-75
2022/12/23 03:12:04;;;;;;;7.50;3.75;;;12.40;99.90;;;;;;5000352;28;20041;-75
2022/12/23 03:14:54;;;;;;;9.48;3.85;;;12.50;99.90;;;;;;5009934;28;20041;-74
2022/12/23 03:17:36;;;;;;;5.47;3.75;;;12.70;99.90;;;;;;4997255;28;20113;-75
2022/12/23 03:20:07;;;;;;;9.18;4.13;;;12.70;99.90;;;;;;4984524;28;20118;-75
2022/12/23 03:23:11;;;;;;;5.38;2.80;;;12.60;99.90;;;;;;5011751;28;20034;-75
2022/12/23 03:25:42;;;;;;;6.88;3.30;;;12.50;99.90;;;;;;5005737;28;20042;-75
2022/12/23 03:28:32;;;;;;;6.55;3.28;;;12.40;99.90;;;;;;5009317;28;20029;-75
2022/12/23 03:31:01;;;;;;;7.20;3.28;;;12.30;99.90;;;;;;5016671;28;20029;-75
2022/12/23 03:33:49;;;;;;;19.65;3.78;;;12.10;99.90;;;;;;5012890;28;20490;-75
2022/12/23 03:36:22;;;;;;;5.80;2.83;;;12.00;99.90;;;;;;5011479;28;20041;-74
2022/12/23 03:38:50;;;;;;;8.52;3.30;;;11.90;99.90;;;;;;5009911;28;20022;-75
2022/12/23 03:41:26;;;;;;;9.95;3.85;;;11.80;99.90;;;;;;5013346;28;20022;-75
2022/12/23 03:43:56;;;;;;;5.43;3.55;;;11.70;99.90;;;;;;5008756;28;20029;-75
2022/12/23 03:46:35;;;;;;;6.28;3.97;;;11.60;99.90;;;;;;5014925;28;20033;-75
2022/12/23 03:49:07;;;;;;;5.43;3.60;;;11.50;99.90;;;;;;5010224;28;20034;-75
2022/12/23 03:51:43;;;;;;;6.13;3.85;;;11.30;99.90;;;;;;5013993;28;20449;-75
2022/12/23 03:54:23;;;;;;;9.18;4.03;;;11.20;99.90;;;;;;5012209;28;20113;-75
2022/12/23 03:56:56;;;;;;;8.10;3.63;;;11.00;99.90;;;;;;5005909;28;20018;-75
2022/12/23 03:59:30;;;;;;;8.30;3.83;;;11.10;99.90;;;;;;5005536;28;20026;-75
2022/12/23 04:02:02;;;;;;;9.85;5.32;;;11.10;99.90;;;;;;5014622;28;20026;-75
2022/12/23 04:04:46;;;;;;;5.97;3.92;;;11.10;99.90;;;;;;5005235;28;20030;-75
2022/12/23 04:07:31;;;;;;;8.77;3.70;;;11.10;99.90;;;;;;4997826;28;20033;-75
2022/12/23 04:09:58;;;;;;;7.30;4.00;;;11.00;99.90;;;;;;4999091;28;20080;-75
2022/12/23 04:12:26;;;;;;;6.18;4.45;;;11.00;99.90;;;;;;5014237;28;20029;-75
2022/12/23 04:14:52;;;;;;;8.10;4.07;;;10.90;99.90;;;;;;5010197;28;20030;-75
2022/12/23 04:17:18;;;;;;;6.28;4.10;;;10.90;99.90;;;;;;5012732;28;20026;-75
2022/12/23 04:19:45;;;;;;;4.63;3.58;;;10.90;99.90;;;;;;5000203;28;20023;-75
2022/12/23 04:22:15;;;;;;;6.68;4.82;;;10.90;99.90;;;;;;5012617;28;20029;-75
2022/12/23 04:24:41;;;;;;;6.63;3.97;;;10.90;99.90;;;;;;5001400;28;20085;-75
2022/12/23 04:27:11;;;;;;;8.48;4.57;;;10.90;99.90;;;;;;5013748;28;20289;-75
2022/12/23 04:29:37;;;;;;;4.60;3.83;;;10.80;99.90;;;;;;5002941;28;20030;-75
2022/12/23 04:32:03;;;;;;;7.53;3.92;;;10.80;99.90;;;;;;5013715;28;20038;-75
2022/12/23 04:34:29;;;;;;;6.85;4.70;;;10.80;99.90;;;;;;4991781;28;20031;-75
2022/12/23 04:36:55;;;;;;;9.32;4.65;;;10.70;99.90;;;;;;4996562;28;20129;-75
2022/12/23 04:39:21;;;;;;;7.03;4.93;;;10.70;99.90;;;;;;5006794;28;20022;-75
2022/12/23 04:41:47;;;;;;;10.55;4.57;;;10.70;99.90;;;;;;5014766;28;20030;-75
2022/12/23 04:44:13;;;;;;;9.55;4.32;;;10.60;99.90;;;;;;5008117;28;20022;-75
2022/12/23 04:46:40;;;;;;;7.10;5.07;;;10.60;99.90;;;;;;5015663;28;20431;-75
2022/12/23 04:49:06;;;;;;;8.93;5.00;;;10.50;99.90;;;;;;5009985;28;20019;-75
2022/12/23 04:51:31;;;;;;;7.55;4.93;;;10.40;99.90;;;;;;5016190;28;20044;-75
2022/12/23 04:53:57;;;;;;;9.00;4.50;;;10.40;99.90;;;;;;5010809;28;20026;-75
2022/12/23 04:56:23;;;;;;;6.15;4.60;;;10.30;99.90;;;;;;5016081;28;20402;-75
2022/12/23 04:58:49;;;;;;;6.35;5.00;;;10.20;99.90;;;;;;5013318;28;20034;-75
2022/12/23 05:01:15;;;;;;;4.55;4.13;;;10.10;99.90;;;;;;4998905;28;20037;-75
2022/12/23 05:03:41;;;;;;;7.65;4.68;;;10.00;99.90;;;;;;5006008;28;20034;-75
2022/12/23 05:06:07;;;;;;;6.93;4.57;;;10.00;99.90;;;;;;4998428;28;20438;-75
2022/12/23 05:08:33;;;;;;;7.85;4.82;;;10.00;99.90;;;;;;5007009;28;20034;-75
2022/12/23 05:10:59;;;;;;;9.20;4.65;;;9.90;99.90;;;;;;5016435;28;20089;-75
2022/12/23 05:13:25;;;;;;;8.00;4.50;;;9.90;99.90;;;;;;5007785;28;20105;-75
2022/12/23 05:15:52;;;;;;;6.88;4.70;;;9.80;99.90;;;;;;5018481;28;20061;-76
2022/12/23 05:18:18;;;;;;;7.47;5.03;;;9.80;99.90;;;;;;5013052;28;20103;-75
2022/12/23 05:20:45;;;;;;;5.75;4.50;;;9.80;99.90;;;;;;5001691;28;20037;-75
2022/12/23 05:23:11;;;;;;;8.20;4.97;;;9.80;99.90;;;;;;5009814;28;20027;-75
2022/12/23 05:25:37;;;;;;;9.20;5.38;;;9.80;99.90;;;;;;5011467;28;20061;-75
2022/12/23 05:28:05;;;;;;;10.38;6.63;;;9.70;99.90;;;;;;4998769;28;20400;-75
2022/12/23 05:30:31;;;;;;;16.52;9.52;;;9.70;99.90;;;;;;5001861;28;20022;-75
2022/12/23 05:32:57;;;;;;;15.77;9.52;;;9.60;99.90;;;;;;5015823;28;20030;-75
2022/12/23 05:35:25;;;;;;;20.25;10.82;;;9.60;99.90;;;;;;5013129;28;20092;-75
2022/12/23 05:37:51;;;;;;;12.35;7.97;;;9.60;99.90;;;;;;5000723;28;20033;-75
2022/12/23 05:40:17;;;;;;;13.27;7.68;;;9.60;99.90;;;;;;5014549;28;20033;-75
2022/12/23 05:42:43;;;;;;;12.95;6.10;;;9.60;99.90;;;;;;5013760;28;20022;-75
2022/12/23 05:45:09;;;;;;;10.40;6.70;;;9.60;99.90;;;;;;5015702;28;20025;-75
2022/12/23 05:47:35;;;;;;;11.75;5.30;;;9.60;99.90;;;;;;5014737;28;20031;-75
2022/12/23 05:50:02;;;;;;;6.82;5.07;;;9.60;99.90;;;;;;5001517;28;20037;-75
2022/12/23 05:52:28;;;;;;;10.00;4.40;;;9.50;99.90;;;;;;5015814;28;20127;-75
2022/12/23 05:54:54;;;;;;;5.57;4.28;;;9.50;99.90;;;;;;5017530;28;20030;-75
2022/12/23 05:57:19;;;;;;;10.55;5.15;;;9.50;99.90;;;;;;5016765;28;20508;-75
2022/12/23 05:59:45;;;;;;;8.98;5.00;;;9.40;99.90;;;;;;5000743;28;20046;-75
2022/12/23 06:02:11;;;;;;;8.40;5.00;;;9.40;99.90;;;;;;5017019;28;20422;-75
2022/12/23 06:04:37;;;;;;;9.63;4.70;;;9.40;99.90;;;;;;5010552;28;20164;-75
2022/12/23 06:07:03;;;;;;;11.50;5.22;;;9.40;99.90;;;;;;5016877;28;20036;-75
2022/12/23 06:09:29;;;;;;;12.45;5.03;;;9.40;99.90;;;;;;5011801;28;20486;-75
2022/12/23 06:11:54;;;;;;;6.95;4.78;;;9.30;99.90;;;;;;5017452;28;20025;-75
2022/12/23 06:14:20;;;;;;;7.10;4.70;;;9.30;99.90;;;;;;4995194;28;20034;-75
2022/12/23 06:16:46;;;;;;;8.88;5.63;;;9.30;99.90;;;;;;5017347;28;20014;-75
2022/12/23 06:19:12;;;;;;;9.63;5.65;;;9.30;99.90;;;;;;5005165;28;20430;-75
2022/12/23 06:21:38;;;;;;;8.30;5.20;;;9.30;99.90;;;;;;5013106;28;20021;-75
2022/12/23 06:24:04;;;;;;;6.65;5.00;;;9.30;99.90;;;;;;4993734;28;20030;-75
2022/12/23 06:26:30;;;;;;;7.70;5.07;;;9.20;99.90;;;;;;5013214;28;20073;-74
2022/12/23 06:28:55;;;;;;;10.93;5.53;;;9.20;99.90;;;;;;5009429;28;20033;-75
2022/12/23 06:31:21;;;;;;;13.38;7.68;;;9.10;99.90;;;;;;5014970;28;20037;-75
2022/12/23 06:33:47;;;;;;;16.25;9.70;;;9.10;99.90;;;;;;5012328;28;20057;-75
2022/12/23 06:36:13;;;;;;;20.90;11.40;;;9.10;99.90;;;;;;5016012;28;20025;-76
2022/12/23 06:38:38;;;;;;;19.55;10.70;;;9.10;99.90;;;;;;5014156;28;20588;-76
2022/12/23 06:41:04;;;;;;;15.40;8.98;;;9.10;99.90;;;;;;4999560;28;20117;-76
2022/12/23 06:43:30;;;;;;;14.77;9.18;;;9.00;99.90;;;;;;5011669;28;20465;-76
2022/12/23 06:45:56;;;;;;;17.55;9.50;;;9.00;99.90;;;;;;4999742;28;20014;-76
2022/12/23 06:48:22;;;;;;;13.70;7.93;;;9.00;99.90;;;;;;4997648;28;20026;-76
2022/12/23 06:50:48;;;;;;;11.10;7.82;;;8.90;99.90;;;;;;5015418;28;20041;-76
2022/12/23 06:53:14;;;;;;;12.55;7.95;;;8.90;99.90;;;;;;4996698;28;20037;-75
2022/12/23 06:55:39;;;;;;;12.80;9.02;;;8.90;99.90;;;;;;4999272;28;20056;-74
2022/12/23 06:58:06;;;;;;;13.30;8.55;;;8.80;99.90;;;;;;5009058;28;20087;-75
2022/12/23 07:00:31;;;;;;;15.38;9.73;;;8.80;99.90;;;;;;5016583;28;20080;-75
2022/12/23 07:02:57;;;;;;;14.00;7.80;;;8.80;99.90;;;;;;5012461;28;20034;-75
2022/12/23 07:05:23;;;;;;;16.33;9.07;;;8.90;99.90;;;;;;4998554;28;20022;-75
2022/12/23 07:07:49;;;;;;;17.15;7.63;;;8.90;99.90;;;;;;4998715;28;20030;-76
2022/12/23 07:10:15;;;;;;;14.05;7.53;;;8.90;99.90;;;;;;4999343;28;20672;-76
2022/12/23 07:12:40;;;;;;;12.45;7.38;;;8.80;99.90;;;;;;5013047;28;20042;-76
2022/12/23 07:15:07;;;;;;;9.00;6.80;;;8.80;99.90;;;;;;5014242;28;20014;-75
2022/12/23 07:17:33;;;;;;;15.73;7.47;;;8.80;99.90;;;;;;4998716;28;20022;-75
2022/12/23 07:19:58;;;;;;;14.15;6.45;;;8.80;99.90;;;;;;4997102;28;20026;-76
2022/12/23 07:22:24;;;;;;;8.98;6.13;;;8.80;99.90;;;;;;4997441;28;20084;-76
2022/12/23 07:24:50;;;;;;;12.20;6.25;;;8.80;99.90;;;;;;5003859;28;20043;-76
2022/12/23 07:27:16;;;;;;;11.50;7.35;;;8.70;99.90;;;;;;5013405;28;20026;-76
2022/12/23 07:29:44;;;;;;;11.30;6.97;;;8.70;99.90;;;;;;4991953;28;20510;-76
2022/12/23 07:32:10;;;;;;;11.68;7.65;;;8.70;99.90;;;;;;4998045;28;20121;-76
2022/12/23 07:34:36;;;;;;;14.30;7.05;;;8.70;99.90;;;;;;4993069;28;20118;-75
2022/12/23 07:37:02;;;;;;;10.50;7.45;;;8.70;99.90;;;;;;5014947;28;20141;-75
2022/12/23 07:39:28;;;;;;;15.98;8.82;;;8.60;99.90;;;;;;5009028;28;20100;-75
2022/12/23 07:41:53;;;;;;;18.35;9.10;;;8.70;99.90;;;;;;5015808;28;20200;-75
2022/12/23 07:44:19;;;;;;;11.55;7.10;;;8.70;99.90;;;;;;5011708;28;20025;-75
2022/12/23 07:46:45;;;;;;;15.45;10.80;;;8.70;99.90;;;;;;4999008;28;20034;-75
2022/12/23 07:49:11;;;;;;;21.30;10.88;;;8.70;99.90;;;;;;4997931;28;20026;-75
2022/12/23 07:51:36;;;;;;;14.15;8.55;;;8.70;99.90;;;;;;4999369;28;20040;-75
2022/12/23 07:54:02;;;;;;;20.30;13.43;;;8.70;99.90;;;;;;4997619;28;20026;-75
2022/12/23 07:56:28;;;;;;;13.82;8.13;;;8.80;99.90;;;;;;5015993;28;20026;-75
2022/12/23 07:58:54;;;;;;;11.85;6.35;;;8.80;99.90;;;;;;5011032;28;20512;-75
2022/12/23 08:01:21;;;;;;;8.95;6.93;;;8.80;99.90;;;;;;5015004;28;20022;-75
2022/12/23 08:03:47;;;;;;;8.85;5.70;;;8.80;99.90;;;;;;4996325;28;20029;-75
2022/12/23 08:06:14;;;;;;;15.57;7.53;;;8.80;99.90;;;;;;5014786;28;20025;-75
2022/12/23 08:08:42;;;;;;;14.25;9.15;;;8.90;99.90;;;;;;5011083;28;20050;-75
2022/12/23 08:11:09;;;;;;;19.23;11.07;;;8.90;99.90;;;;;;5016944;28;20108;-76
2022/12/23 08:13:39;;;;;;;28.42;15.30;;;9.00;99.90;;;;;;4992961;28;20026;-76
2022/12/23 08:16:05;;;;;;;53.88;36.78;;;9.00;99.90;;;;;;4999208;28;20512;-76
2022/12/23 08:18:34;;;;;;;20.52;10.75;;;9.10;99.90;;;;;;4992796;28;20022;-76
2022/12/23 08:21:21;;;;;;;23.75;13.68;;;9.20;99.90;;;;;;5016503;28;20433;-76
2022/12/23 08:23:47;;;;;;;167.15;77.80;;;9.20;99.90;;;;;;4992114;28;20034;-75
2022/12/23 08:26:16;;;;;;;314.65;142.00;;;9.30;99.90;;;;;;4976492;28;20078;-75
2022/12/23 08:28:43;;;;;;;142.38;73.93;;;9.40;99.90;;;;;;4991453;28;20394;-75
2022/12/23 08:31:20;;;;;;;47.15;28.25;;;9.50;99.90;;;;;;4979510;28;20026;-74
2022/12/23 08:33:48;;;;;;;72.70;44.35;;;9.60;99.90;;;;;;4975304;28;20037;-75
2022/12/23 08:36:19;;;;;;;124.85;69.90;;;9.70;99.90;;;;;;4978052;28;20030;-75
2022/12/23 08:38:45;;;;;;;329.92;203.75;;;9.80;99.90;;;;;;4977903;28;20031;-75
2022/12/23 08:41:14;;;;;;;173.63;130.13;;;10.00;99.90;;;;;;4979673;28;20027;-75
2022/12/23 08:43:40;;;;;;;159.98;114.28;;;10.10;99.90;;;;;;4991533;28;20021;-75
2022/12/23 08:46:06;;;;;;;512.33;283.80;;;10.20;99.90;;;;;;4978561;28;20056;-75
2022/12/23 08:48:34;;;;;;;235.88;117.22;;;10.40;99.90;;;;;;4978869;28;20049;-75
2022/12/23 08:51:11;;;;;;;22.08;13.52;;;10.50;99.90;;;;;;4997611;28;20061;-75
2022/12/23 08:53:38;;;;;;;81.28;44.03;;;10.60;99.90;;;;;;4993427;28;20459;-75
2022/12/23 08:56:11;;;;;;;42.03;26.25;;;10.80;99.90;;;;;;4982138;28;20022;-75
2022/12/23 08:58:39;;;;;;;111.50;73.13;;;10.80;99.90;;;;;;4996158;28;20022;-75
2022/12/23 09:01:08;;;;;;;89.30;61.67;;;10.90;99.90;;;;;;4982314;28;20038;-75
2022/12/23 09:03:35;;;;;;;199.57;121.00;;;11.00;99.90;;;;;;4996448;28;20026;-75
2022/12/23 09:06:09;;;;;;;198.50;110.78;;;10.90;99.90;;;;;;4997337;28;20033;-75
2022/12/23 09:08:36;;;;;;;165.75;90.85;;;11.00;99.90;;;;;;4981500;28;20496;-75
2022/12/23 09:11:02;;;;;;;68.18;42.35;;;11.10;99.90;;;;;;4982660;28;20510;-74
2022/12/23 09:13:28;;;;;;;53.97;33.45;;;11.20;99.90;;;;;;4992835;28;20113;-74
2022/12/23 09:15:54;;;;;;;233.20;136.30;;;11.30;99.90;;;;;;5000679;28;20238;-74
2022/12/23 09:18:20;;;;;;;248.15;140.95;;;11.40;99.90;;;;;;4982445;28;20026;-74
2022/12/23 09:20:46;;;;;;;29.55;16.70;;;11.50;99.90;;;;;;5000223;28;20503;-75
2022/12/23 09:23:12;;;;;;;65.78;37.78;;;11.60;99.90;;;;;;4981518;28;20399;-74
2022/12/23 09:25:38;;;;;;;284.15;139.93;;;11.70;99.90;;;;;;4982574;28;20529;-74
2022/12/23 09:28:06;;;;;;;225.00;113.97;;;11.90;99.90;;;;;;4979980;28;20030;-74
2022/12/23 09:30:32;;;;;;;50.38;26.67;;;12.00;99.90;;;;;;4982880;28;20026;-74
2022/12/23 09:32:57;;;;;;;18.13;10.43;;;12.10;99.90;;;;;;4996799;28;20034;-75
2022/12/23 09:35:24;;;;;;;16.48;9.75;;;12.30;99.90;;;;;;4981835;28;20029;-75
2022/12/23 09:37:50;;;;;;;19.98;11.88;;;12.40;99.90;;;;;;4995661;28;20039;-74
2022/12/23 09:40:19;;;;;;;36.15;25.90;;;12.50;99.90;;;;;;4997370;28;20094;-75
2022/12/23 09:43:08;;;;;;;156.35;80.78;;;12.60;99.90;;;;;;4995736;28;20165;-75
2022/12/23 09:45:42;;;;;;;19.25;10.32;;;12.60;99.90;;;;;;4998412;28;20035;-75
2022/12/23 09:48:16;;;;;;;70.72;40.47;;;12.60;99.90;;;;;;4980829;28;20085;-75
2022/12/23 09:50:44;;;;;;;26.92;13.15;;;12.60;99.90;;;;;;4981591;28;20026;-75
2022/12/23 09:53:26;;;;;;;18.58;9.98;;;12.60;99.90;;;;;;4994683;28;20026;-75
2022/12/23 09:56:14;;;;;;;20.25;12.27;;;12.60;99.90;;;;;;4998014;28;20030;-75
2022/12/23 09:58:50;;;;;;;46.67;25.50;;;12.60;99.90;;;;;;4981257;28;20034;-75
2022/12/23 10:01:42;;;;;;;40.28;24.48;;;12.60;99.90;;;;;;4977903;28;20018;-75
2022/12/23 10:04:21;;;;;;;12.18;6.45;;;12.70;99.90;;;;;;4990932;28;20030;-75
2022/12/23 10:07:14;;;;;;;13.32;6.00;;;12.70;99.90;;;;;;4998594;28;20054;-75
2022/12/23 10:09:44;;;;;;;39.63;28.55;;;12.90;99.90;;;;;;4960281;28;20585;-75
2022/12/23 10:12:33;;;;;;;19.10;11.63;;;13.00;99.90;;;;;;4979757;28;20402;-76
2022/12/23 10:15:01;;;;;;;13.98;8.00;;;13.20;99.90;;;;;;4992900;28;20034;-76
2022/12/23 10:17:33;;;;;;;11.98;6.78;;;13.30;99.90;;;;;;4995631;28;20810;-76
2022/12/23 10:20:01;;;;;;;13.77;10.23;;;13.40;99.90;;;;;;4995009;28;20022;-75
2022/12/23 10:22:44;;;;;;;14.18;5.57;;;13.60;99.90;;;;;;4995235;28;20078;-75
2022/12/23 10:25:27;;;;;;;11.63;6.60;;;13.70;99.90;;;;;;4974419;28;20050;-75
2022/12/23 10:27:53;;;;;;;44.17;31.42;;;13.80;99.90;;;;;;4984836;28;20031;-75
2022/12/23 10:30:23;;;;;;;15.57;9.65;;;13.90;99.90;;;;;;4991937;28;20062;-76
2022/12/23 10:33:08;;;;;;;17.57;6.53;;;14.00;99.90;;;;;;4979102;28;20030;-76
2022/12/23 10:36:01;;;;;;;17.25;9.07;;;14.00;99.90;;;;;;4993581;28;20832;-76
2022/12/23 10:38:56;;;;;;;11.35;5.28;;;14.20;99.90;;;;;;4993346;28;20038;-75
2022/12/23 10:42:02;;;;;;;13.80;7.70;;;14.30;99.90;;;;;;4951943;28;20102;-76
2022/12/23 10:44:43;;;;;;;14.32;5.38;;;14.30;99.90;;;;;;4966232;28;20046;-76
2022/12/23 10:47:24;;;;;;;12.00;6.05;;;14.30;99.90;;;;;;4983851;28;20080;-76
2022/12/23 10:50:28;;;;;;;8.25;4.75;;;14.40;99.90;;;;;;4993730;28;20065;-76
2022/12/23 10:52:57;;;;;;;15.95;5.22;;;14.40;99.90;;;;;;4990718;28;20050;-76
2022/12/23 10:55:31;;;;;;;9.50;5.32;;;14.40;99.90;;;;;;5003774;28;20038;-76
2022/12/23 10:58:05;;;;;;;18.50;9.93;;;14.40;99.90;;;;;;4998796;28;20400;-76
2022/12/23 11:00:30;;;;;;;18.92;5.97;;;14.50;99.90;;;;;;5003782;28;20034;-76
2022/12/23 11:03:02;;;;;;;12.18;5.60;;;14.50;99.90;;;;;;5002335;28;20033;-76
2022/12/23 11:05:29;;;;;;;24.08;9.80;;;14.50;99.90;;;;;;5002652;28;20030;-76
2022/12/23 11:07:56;;;;;;;12.52;6.72;;;14.50;99.90;;;;;;5001250;28;20022;-76
2022/12/23 11:10:27;;;;;;;9.38;4.97;;;14.40;99.90;;;;;;5002155;28;20069;-75
2022/12/23 11:12:53;;;;;;;9.98;4.50;;;14.50;99.90;;;;;;4983599;28;20022;-75
2022/12/23 11:15:38;;;;;;;9.52;5.25;;;14.50;99.90;;;;;;5001438;28;20031;-75
2022/12/23 11:18:30;;;;;;;12.13;5.65;;;14.50;99.90;;;;;;4979917;28;20022;-75
2022/12/23 11:21:05;;;;;;;10.13;4.80;;;14.50;99.90;;;;;;4981038;28;20117;-75
2022/12/23 11:23:34;;;;;;;11.43;4.90;;;14.50;99.90;;;;;;5001574;28;20018;-75
2022/12/23 11:26:05;;;;;;;7.18;4.50;;;14.60;99.90;;;;;;5014041;28;20133;-75
2022/12/23 11:28:34;;;;;;;8.40;4.65;;;14.70;99.90;;;;;;5022072;28;20022;-75
2022/12/23 11:31:08;;;;;;;9.88;4.75;;;14.70;99.90;;;;;;5001365;28;20032;-76
2022/12/23 11:33:54;;;;;;;10.85;5.47;;;14.70;99.90;;;;;;5010439;28;20091;-75
2022/12/23 11:36:26;;;;;;;9.02;4.53;;;14.80;99.90;;;;;;5016867;28;20025;-75
2022/12/23 11:39:06;;;;;;;13.82;4.75;;;14.90;99.90;;;;;;5019306;28;20056;-75
2022/12/23 11:41:44;;;;;;;9.83;4.83;;;15.00;99.90;;;;;;5020861;28;20117;-75
2022/12/23 11:44:26;;;;;;;15.15;4.00;;;15.10;99.90;;;;;;4992361;28;20108;-75
2022/12/23 11:46:52;;;;;;;12.85;4.35;;;15.20;99.90;;;;;;5015895;28;20497;-75
2022/12/23 11:49:26;;;;;;;8.98;4.82;;;15.30;99.90;;;;;;5015745;28;20136;-75
2022/12/23 11:52:11;;;;;;;13.60;4.47;;;15.30;99.90;;;;;;5019764;28;20022;-76
2022/12/23 11:54:37;;;;;;;8.73;4.72;;;15.40;99.90;;;;;;5016357;28;20117;-77
2022/12/23 11:57:07;;;;;;;19.05;9.70;;;15.50;99.90;;;;;;5023871;28;20026;-76
2022/12/23 11:59:39;;;;;;;21.23;9.18;;;15.50;99.90;;;;;;5022199;28;20104;-77
2022/12/23 12:02:21;;;;;;;10.85;4.18;;;15.60;99.90;;;;;;5022881;28;20957;-77
2022/12/23 12:05:15;;;;;;;14.82;5.03;;;15.50;99.90;;;;;;5006555;28;20037;-77
2022/12/23 12:07:45;;;;;;;11.15;4.07;;;15.60;99.90;;;;;;5011357;28;20025;-77
2022/12/23 12:10:21;;;;;;;11.97;4.50;;;15.50;99.90;;;;;;5006383;28;20040;-77
2022/12/23 12:12:54;;;;;;;6.13;3.40;;;15.60;99.90;;;;;;5016317;28;20067;-77
2022/12/23 12:15:43;;;;;;;13.05;4.22;;;15.50;99.90;;;;;;4975858;28;20025;-77
2022/12/23 12:18:16;;;;;;;8.40;3.90;;;15.50;99.90;;;;;;5007671;28;20022;-77
2022/12/23 12:20:46;;;;;;;8.60;3.88;;;15.40;99.90;;;;;;5003395;28;20022;-77
2022/12/23 12:23:17;;;;;;;11.45;3.42;;;15.40;99.90;;;;;;5013607;28;20029;-76
2022/12/23 12:25:46;;;;;;;;;;;15.40;99.90;;;;;;4993754;28;20162;-77
2022/12/23 12:28:33;;;;;;;15.95;4.30;;;15.50;99.90;;;;;;4985861;28;19925;-76
2022/12/23 12:31:35;;;;;;;12.95;4.32;;;15.50;99.90;;;;;;5001474;28;20030;-76
2022/12/23 12:34:21;;;;;;;10.98;4.70;;;15.60;99.90;;;;;;4991062;28;20029;-76
2022/12/23 12:37:09;;;;;;;11.60;3.63;;;15.70;99.90;;;;;;5007527;28;20018;-75
2022/12/23 12:39:41;;;;;;;7.75;3.33;;;15.80;99.90;;;;;;5017766;28;20505;-76
2022/12/23 12:42:15;;;;;;;11.75;4.28;;;16.00;99.90;;;;;;4999700;28;20038;-76
2022/12/23 12:45:09;;;;;;;12.48;4.15;;;16.20;99.90;;;;;;5004281;28;20097;-76
2022/12/23 12:47:51;;;;;;;10.10;3.83;;;16.40;99.90;;;;;;4995524;28;20030;-76
2022/12/23 12:50:22;;;;;;;7.72;3.65;;;16.40;99.90;;;;;;4988950;28;20033;-76
2022/12/23 12:52:51;;;;;;;11.52;4.03;;;16.40;99.90;;;;;;5015712;28;20037;-76
2022/12/23 12:55:33;;;;;;;15.13;4.25;;;16.40;99.90;;;;;;5017983;28;20037;-76
2022/12/23 12:58:01;;;;;;;7.25;3.10;;;16.50;99.90;;;;;;5017507;28;20047;-76
2022/12/23 13:00:29;;;;;;;14.10;3.63;;;16.50;99.90;;;;;;5001118;28;20022;-76
2022/12/23 13:03:20;;;;;;;13.40;4.13;;;16.50;99.90;;;;;;4990730;28;20033;-77
2022/12/23 13:05:49;;;;;;;10.38;3.88;;;16.60;99.90;;;;;;5013578;28;20033;-77
2022/12/23 13:08:26;;;;;;;11.07;3.20;;;16.50;99.90;;;;;;5011463;28;20045;-77
2022/12/23 13:10:59;;;;;;;12.80;3.50;;;16.50;99.90;;;;;;5012582;28;20030;-77
2022/12/23 13:13:40;;;;;;;7.68;2.78;;;16.40;99.90;;;;;;5010210;28;20069;-77
2022/12/23 13:16:12;;;;;;;11.05;4.22;;;16.40;99.90;;;;;;4999164;28;20034;-77
2022/12/23 13:19:05;;;;;;;14.73;5.00;;;16.40;99.90;;;;;;5003756;28;20064;-77
2022/12/23 13:21:35;;;;;;;6.72;2.75;;;16.50;99.90;;;;;;5014454;28;20092;-77
2022/12/23 13:24:20;;;;;;;9.05;3.22;;;16.60;99.90;;;;;;4994839;28;20395;-77
2022/12/23 13:26:59;;;;;;;11.18;3.92;;;16.70;99.90;;;;;;5016005;28;20538;-77
2022/12/23 13:29:44;;;;;;;6.20;3.25;;;16.90;99.90;;;;;;4995186;28;20032;-77
2022/12/23 13:32:15;;;;;;;9.77;3.58;;;17.00;99.90;;;;;;5014535;28;20018;-77
2022/12/23 13:35:16;;;;;;;10.50;3.65;;;17.00;99.90;;;;;;4997738;28;20455;-77